Impacts TAF Board
For situational awareness. Not to be used for flight planning purposes.
IDs:

KDAL - Dallas/Love Fld, TX, US

Issued at 0520 UTC 18 Sep 2021
Updated at 0637 UTC 18 Sep 2021
Potential Impact None Slight Moderate High
Time0553Z 18/07Z 18/08Z 18/09Z 18/10Z 18/11Z 18/12Z 18/13Z 18/14Z 18/15Z 18/16Z 18/17Z 18/18Z 18/19Z>>
Type OBS PRVL PRVL PRVL PRVL PRVL PRVL PRVL PRVL PRVL PRVL PRVL PRVL PRVL
VIS 10 >6 >6 >6 >6 >6 >6 >6 >6 >6 >6 >6 >6 >6
CIG -- -- -- -- -- -- -- -- -- -- -- -- -- --
Cover FEW FEW FEW FEW FEW FEW FEW FEW FEW FEW SCT SCT SCT SCT
FltCat VFR VFR VFR VFR VFR VFR VFR VFR VFR VFR VFR VFR VFR VFR
WX -- -- -- -- -- -- -- -- -- -- -- -- -- --
WDir 80 360 360 360 360 360 360 360 360 360 20 20 20 20
WSpd 3 4 4 4 4 4 4 4 4 4 8 8 8 8
WGst -- -- -- -- -- -- -- -- -- -- -- -- -- --
Raw TAF
KDAL 180520Z 1806/1906 36004KT P6SM FEW060
  FM181600 02008KT P6SM SCT070


Raw METAR
KDAL 180553Z 08003KT 10SM FEW060 27/19 A3003 RMK AO2 SLP160 T02670189 10322 20267 403390228 53004
KDAL 180453Z 07003KT 10SM FEW060 FEW250 27/19 A3002 RMK AO2 SLP157 T02720189
KDAL 180353Z 03005KT 10SM FEW060 FEW250 28/19 A3002 RMK AO2 SLP157 T02780189

METAR Board
Radar Display
Forecast Discussion
For situational awareness. Not to be used for flight planning purposes.